Mentone, IN (46539)

9:51 PM EDT on May 22, 2017 (GMT -0400)
Birch Rd. Observatory | | Change Station

Elev 827 ft 41.18 °N, 86.08 °W | Updated 7 seconds ago

Overcast
Overcast
64.3 °F
Feels Like 64.3 °F
N
0.0
Wind Variable Wind from SSE
Gusts 0.0 mph

Today
High -- | Low -- °F
--% Chance of Precip.
Yesterday
High -- | Low -- °F
Precip. -- in
Pressure 29.98 in
Visibility 10.0 miles
Clouds Clear
Dew Point 53 °F
Humidity 66%
Rainfall 0.00 in
Snow Depth Not available.
6:19 AM 9:02 PM
Waning Crescent, 11% visible
METAR KRCR 230135Z AUTO 20005KT 10SM CLR 20/10 A2998 RMK AO2
Pressure 29.98 in
Visibility 10.0 miles
Clouds Clear
Dew Point 53 °F
Humidity 66%
Rainfall 0.00 in
Snow Depth Not available.
6:19 AM 9:02 PM
Waning Crescent, 11% visible
METAR KRCR 230135Z AUTO 20005KT 10SM CLR 20/10 A2998 RMK AO2

Get Severe Weather Alerts

Thanks for signing up!

Be on the lookout for a verification email in your inbox.

You'll start receiving the daily forecast at 6 AM.

×

10-Day Weather Forecast

Almanac

Astronomy

May. 22, 2017 Rise Set
Actual Time
Civil Twilight
Nautical Twilight
Astronomical Twilight
Moon
Length of Visible Light
Length of Day
Tomorrow will be .
, % of the Moon is Illuminated

Today's Extremes

State Highs State Lows

Community

WunderPhotos

Category 6

Welcome to Category 6. This is the collective home for Weather Underground's featured writeups by Dr. Jeff Masters (right), Bob Henson (left), Chris Burt, and other regular contributors.

Nearby

Air Quality

  Air Quality AQ Index Pollutant
Not available.

Snow Depth

Station Depth Elevation

Earthquake Activity

City Distance Mag. Time & Date
Minimum magnitude displayed is 2.5.

Coastal Water Temperatures

Place Temperature

Stations

Nearby Weather Stations

Station Location Temp. Windchill Dew Point Humidity Wind Precip. Elev Updated Type
                   

Watches & Warnings

There are currently no watches in effect.